Time;durP1;ratioP1;P1;durP2;ratioP2;P2;SDS_P1;SDS_P2;PMS_P1;PMS_P2;Temp;Humidity;BMP_temperature;BMP_pressure;BME280_temperature;BME280_humidity;BME280_pressure;Samples;Min_cycle;Max_cycle;Signal;HPM_P1;HPM_P2
2023/11/04 00:00:35;;;;;;;;;;;21.30;68.90;;;;;;5000384;28;1910;-68
2023/11/04 00:03:00;;;;;;;;;;;21.30;68.90;;;;;;5007040;28;1150;-68
2023/11/04 00:05:26;;;;;;;;;;;21.30;68.90;;;;;;5002618;28;1302;-67
2023/11/04 00:07:51;;;;;;;;;;;21.30;69.00;;;;;;5004964;28;1102;-68
2023/11/04 00:10:17;;;;;;;;;;;21.30;69.00;;;;;;5005113;28;1407;-67
2023/11/04 00:12:42;;;;;;;;;;;21.30;69.00;;;;;;5004469;28;1319;-69
2023/11/04 00:15:08;;;;;;;;;;;21.30;69.00;;;;;;5002851;28;1227;-69
2023/11/04 00:17:33;;;;;;;;;;;21.20;69.00;;;;;;5001223;28;1125;-67
2023/11/04 00:19:59;;;;;;;;;;;21.20;69.00;;;;;;5003005;28;1470;-68
2023/11/04 00:22:24;;;;;;;;;;;21.20;69.00;;;;;;5000551;28;1906;-68
2023/11/04 00:24:53;;;;;;;;;;;21.30;69.10;;;;;;5004150;28;1447;-68
2023/11/04 00:27:19;;;;;;;;;;;21.30;69.10;;;;;;5005069;28;1438;-69
2023/11/04 00:29:44;;;;;;;;;;;21.20;69.10;;;;;;5003106;28;1542;-69
2023/11/04 00:32:10;;;;;;;;;;;21.20;69.10;;;;;;5003308;28;1300;-69
2023/11/04 00:34:35;;;;;;;;;;;21.20;69.10;;;;;;5003214;28;920;-68
2023/11/04 00:37:01;;;;;;;;;;;21.30;69.20;;;;;;4999263;28;1068;-68
2023/11/04 00:39:27;;;;;;;;;;;21.20;69.10;;;;;;5003349;28;1508;-67
2023/11/04 00:41:52;;;;;;;;;;;21.20;69.20;;;;;;5001581;28;1894;-67
2023/11/04 00:44:18;;;;;;;;;;;21.20;69.20;;;;;;5016760;28;1297;-68
2023/11/04 00:46:43;;;;;;;;;;;21.20;69.20;;;;;;5001091;28;1061;-68
2023/11/04 00:49:09;;;;;;;;;;;21.20;69.20;;;;;;4999565;28;1265;-67
2023/11/04 00:51:36;;;;;;;;;;;21.20;69.20;;;;;;5002359;28;1380;-67
2023/11/04 00:54:01;;;;;;;;;;;21.20;69.30;;;;;;5003417;28;1407;-67
2023/11/04 00:56:27;;;;;;;;;;;21.20;69.30;;;;;;5004216;28;1736;-67
2023/11/04 00:58:52;;;;;;;;;;;21.20;69.40;;;;;;5018857;28;1374;-67
2023/11/04 01:01:18;;;;;;;;;;;21.20;70.10;;;;;;5016949;28;1981;-67
2023/11/04 01:03:43;;;;;;;;;;;21.20;69.40;;;;;;5000703;28;1262;-68
2023/11/04 01:06:09;;;;;;;;;;;21.20;69.40;;;;;;4997344;28;1245;-68
2023/11/04 01:08:34;;;;;;;;;;;21.20;69.40;;;;;;4999727;28;1266;-68
2023/11/04 01:11:00;;;;;;;;;;;21.20;69.40;;;;;;5003636;28;1477;-68
2023/11/04 01:13:25;;;;;;;;;;;21.20;69.40;;;;;;5000814;28;1550;-70
2023/11/04 01:15:52;;;;;;;;;;;21.10;69.30;;;;;;5006117;28;1257;-68
2023/11/04 01:18:19;;;;;;;;;;;21.20;69.40;;;;;;5005372;28;1558;-68
2023/11/04 01:20:45;;;;;;;;;;;21.10;69.30;;;;;;5006143;28;1910;-68
2023/11/04 01:23:10;;;;;;;;;;;21.10;69.30;;;;;;5000162;28;1574;-68
2023/11/04 01:25:36;;;;;;;;;;;21.10;69.30;;;;;;4998723;28;1427;-67
2023/11/04 01:28:01;;;;;;;;;;;21.10;69.30;;;;;;5003956;28;1447;-67
2023/11/04 01:30:27;;;;;;;;;;;21.10;69.30;;;;;;5007123;28;1433;-66
2023/11/04 01:32:52;;;;;;;;;;;21.10;69.40;;;;;;5012534;28;1467;-66
2023/11/04 01:35:18;;;;;;;;;;;21.10;69.40;;;;;;5009612;28;1136;-67
2023/11/04 01:37:43;;;;;;;;;;;21.10;69.40;;;;;;5005746;28;1208;-67
2023/11/04 01:40:12;;;;;;;;;;;21.10;69.40;;;;;;5011319;28;1245;-67
2023/11/04 01:42:41;;;;;;;;;;;21.10;69.40;;;;;;5020857;28;1947;-67
2023/11/04 01:45:09;;;;;;;;;;;21.10;69.40;;;;;;5009925;28;1463;-67
2023/11/04 01:47:34;;;;;;;;;;;21.10;69.50;;;;;;5003639;28;1131;-67
2023/11/04 01:50:00;;;;;;;;;;;21.10;69.50;;;;;;5005981;28;1047;-67
2023/11/04 01:52:25;;;;;;;;;;;21.10;69.50;;;;;;5010413;28;1684;-67
2023/11/04 01:54:51;;;;;;;;;;;21.10;69.50;;;;;;5009793;28;1282;-67
2023/11/04 01:57:17;;;;;;;;;;;21.10;69.50;;;;;;5006641;28;1233;-67
2023/11/04 01:59:42;;;;;;;;;;;21.10;69.60;;;;;;5008463;28;1379;-67
2023/11/04 02:02:10;;;;;;;;;;;21.10;69.50;;;;;;5003533;28;1906;-67
2023/11/04 02:04:37;;;;;;;;;;;21.10;69.60;;;;;;5019125;28;1480;-67
2023/11/04 02:07:03;;;;;;;;;;;21.10;69.60;;;;;;5002776;28;1306;-67
2023/11/04 02:09:28;;;;;;;;;;;21.10;69.60;;;;;;5004755;28;1901;-67
2023/11/04 02:11:54;;;;;;;;;;;21.10;70.40;;;;;;5009443;28;1458;-67
2023/11/04 02:14:19;;;;;;;;;;;21.00;69.60;;;;;;5005160;28;1434;-67
2023/11/04 02:16:46;;;;;;;;;;;21.00;69.60;;;;;;5002912;28;1532;-67
2023/11/04 02:19:12;;;;;;;;;;;21.00;69.60;;;;;;5003571;28;1440;-67
2023/11/04 02:21:37;;;;;;;;;;;21.00;69.60;;;;;;5019413;28;1902;-67
2023/11/04 02:24:03;;;;;;;;;;;21.00;69.60;;;;;;5005059;28;1404;-67
2023/11/04 02:26:28;;;;;;;;;;;21.00;69.60;;;;;;5002588;28;1344;-67
2023/11/04 02:28:54;;;;;;;;;;;21.00;69.60;;;;;;5005203;28;1232;-67
2023/11/04 02:31:19;;;;;;;;;;;21.00;69.60;;;;;;5004927;28;1374;-67
2023/11/04 02:33:45;;;;;;;;;;;21.00;69.70;;;;;;5005583;28;891;-67
2023/11/04 02:36:10;;;;;;;;;;;21.00;69.70;;;;;;5004220;28;875;-67
2023/11/04 02:38:35;;;;;;;;;;;21.00;69.70;;;;;;5010036;28;1203;-67
2023/11/04 02:41:01;;;;;;;;;;;21.00;69.70;;;;;;5000485;28;1983;-68
2023/11/04 02:43:26;;;;;;;;;;;21.00;69.70;;;;;;5002826;28;1309;-67
2023/11/04 02:45:52;;;;;;;;;;;21.00;69.70;;;;;;5002683;28;1355;-67
2023/11/04 02:48:17;;;;;;;;;;;21.00;69.70;;;;;;5004427;28;1340;-68
2023/11/04 02:50:43;;;;;;;;;;;21.00;69.70;;;;;;5008658;28;1391;-68
2023/11/04 02:53:08;;;;;;;;;;;21.00;69.70;;;;;;5009291;28;1343;-68
2023/11/04 02:55:34;;;;;;;;;;;21.00;69.80;;;;;;5002990;28;1398;-68
2023/11/04 02:58:00;;;;;;;;;;;21.00;69.70;;;;;;5003128;28;1348;-67
2023/11/04 03:00:25;;;;;;;;;;;21.00;69.70;;;;;;5007042;28;1977;-67
2023/11/04 03:02:51;;;;;;;;;;;21.00;70.50;;;;;;5002064;28;1518;-67
2023/11/04 03:05:17;;;;;;;;;;;21.00;69.70;;;;;;5008045;28;1145;-67
2023/11/04 03:07:42;;;;;;;;;;;21.00;69.80;;;;;;5003968;28;974;-67
2023/11/04 03:10:08;;;;;;;;;;;21.00;69.80;;;;;;5004263;28;1367;-67
2023/11/04 03:12:34;;;;;;;;;;;21.00;69.80;;;;;;5001127;28;986;-67
2023/11/04 03:14:59;;;;;;;;;;;21.00;69.80;;;;;;5004815;28;1237;-67
2023/11/04 03:17:25;;;;;;;;;;;20.90;69.80;;;;;;5003164;28;1318;-67
2023/11/04 03:19:51;;;;;;;;;;;20.90;69.70;;;;;;5003229;28;1245;-67
2023/11/04 03:22:17;;;;;;;;;;;20.90;69.70;;;;;;5002611;28;1969;-67
2023/11/04 03:24:43;;;;;;;;;;;21.00;69.90;;;;;;5003013;28;1445;-69
2023/11/04 03:27:09;;;;;;;;;;;20.90;69.80;;;;;;5008042;28;1374;-67
2023/11/04 03:29:35;;;;;;;;;;;21.00;69.80;;;;;;5004925;28;987;-67
2023/11/04 03:32:00;;;;;;;;;;;21.00;69.80;;;;;;5002479;28;1522;-67
2023/11/04 03:34:26;;;;;;;;;;;20.90;69.80;;;;;;5003851;28;1175;-66
2023/11/04 03:36:51;;;;;;;;;;;20.90;69.80;;;;;;5003328;28;1153;-67
2023/11/04 03:39:17;;;;;;;;;;;20.90;69.80;;;;;;5001487;28;911;-67
2023/11/04 03:41:42;;;;;;;;;;;20.90;69.80;;;;;;5003500;28;1967;-67
2023/11/04 03:44:08;;;;;;;;;;;20.90;69.80;;;;;;5002265;28;986;-67
2023/11/04 03:46:33;;;;;;;;;;;20.90;69.80;;;;;;4999306;28;1479;-68
2023/11/04 03:49:00;;;;;;;;;;;20.90;69.80;;;;;;5002529;28;1346;-68
2023/11/04 03:51:26;;;;;;;;;;;20.90;69.80;;;;;;5001402;28;1718;-68
2023/11/04 03:53:51;;;;;;;;;;;20.90;69.80;;;;;;5002250;28;1427;-68
2023/11/04 03:56:17;;;;;;;;;;;20.90;69.80;;;;;;5002790;28;1318;-68
2023/11/04 03:58:42;;;;;;;;;;;20.90;69.80;;;;;;5003317;28;1404;-67
2023/11/04 04:01:08;;;;;;;;;;;20.90;69.80;;;;;;5004499;28;1907;-68
2023/11/04 04:03:33;;;;;;;;;;;20.90;69.80;;;;;;5004758;28;1230;-67
2023/11/04 04:06:00;;;;;;;;;;;20.90;69.80;;;;;;5003983;28;1215;-67
2023/11/04 04:08:26;;;;;;;;;;;20.90;69.90;;;;;;5003120;28;1663;-68
2023/11/04 04:10:51;;;;;;;;;;;20.90;69.90;;;;;;5008060;28;1502;-67
2023/11/04 04:13:17;;;;;;;;;;;20.90;69.90;;;;;;5002195;28;1142;-67
2023/11/04 04:15:42;;;;;;;;;;;20.90;69.90;;;;;;5016806;28;1319;-67
2023/11/04 04:18:08;;;;;;;;;;;20.90;70.00;;;;;;5001138;28;1276;-67
2023/11/04 04:20:33;;;;;;;;;;;20.90;69.90;;;;;;5001018;28;1902;-67
2023/11/04 04:22:59;;;;;;;;;;;20.90;70.00;;;;;;5003318;28;1466;-68
2023/11/04 04:25:24;;;;;;;;;;;20.90;69.90;;;;;;5002444;28;1534;-68
2023/11/04 04:27:49;;;;;;;;;;;20.90;69.90;;;;;;5002150;28;1380;-67
2023/11/04 04:30:16;;;;;;;;;;;20.90;70.00;;;;;;5003380;28;1272;-68
2023/11/04 04:32:41;;;;;;;;;;;20.90;70.00;;;;;;5002015;28;1128;-67
2023/11/04 04:35:07;;;;;;;;;;;20.90;70.00;;;;;;5005643;28;1432;-68
2023/11/04 04:37:32;;;;;;;;;;;20.90;70.00;;;;;;5003993;28;1170;-68
2023/11/04 04:39:58;;;;;;;;;;;20.90;70.00;;;;;;5002035;28;1532;-68
2023/11/04 04:42:23;;;;;;;;;;;20.90;70.00;;;;;;5002784;28;1972;-67
2023/11/04 04:44:49;;;;;;;;;;;20.90;70.00;;;;;;5001928;28;1466;-67
2023/11/04 04:47:14;;;;;;;;;;;20.80;69.90;;;;;;5002676;28;1227;-68
2023/11/04 04:49:40;;;;;;;;;;;20.80;69.90;;;;;;5001576;28;1352;-68
2023/11/04 04:52:06;;;;;;;;;;;20.80;69.90;;;;;;5000657;28;1340;-67
2023/11/04 04:54:31;;;;;;;;;;;20.90;70.00;;;;;;5005034;28;1687;-67
2023/11/04 04:56:58;;;;;;;;;;;20.80;70.00;;;;;;5000184;28;1354;-67
2023/11/04 04:59:23;;;;;;;;;;;20.90;70.00;;;;;;5003705;28;1244;-68
2023/11/04 05:01:49;;;;;;;;;;;20.80;70.00;;;;;;5009808;28;2005;-68
2023/11/04 05:04:14;;;;;;;;;;;20.80;70.00;;;;;;5004493;28;1204;-68
2023/11/04 05:06:40;;;;;;;;;;;20.80;70.00;;;;;;5005922;28;1427;-68
2023/11/04 05:09:06;;;;;;;;;;;20.90;70.00;;;;;;5021734;28;1308;-68
2023/11/04 05:11:31;;;;;;;;;;;20.80;70.00;;;;;;5003774;28;1472;-68
2023/11/04 05:13:57;;;;;;;;;;;20.80;70.00;;;;;;5008173;28;1448;-68
2023/11/04 05:16:22;;;;;;;;;;;20.80;70.00;;;;;;5004105;28;1262;-68
2023/11/04 05:18:48;;;;;;;;;;;20.80;70.00;;;;;;5006522;28;1502;-68
2023/11/04 05:21:16;;;;;;;;;;;20.80;70.00;;;;;;5005376;28;1906;-68
2023/11/04 05:23:45;;;;;;;;;;;20.80;70.00;;;;;;5005154;28;1415;-68
2023/11/04 05:26:10;;;;;;;;;;;20.80;70.00;;;;;;5003397;28;1454;-68
2023/11/04 05:28:35;;;;;;;;;;;20.80;70.00;;;;;;5003884;28;1446;-68
2023/11/04 05:31:01;;;;;;;;;;;20.80;70.00;;;;;;5002934;28;1354;-68
2023/11/04 05:33:26;;;;;;;;;;;20.80;70.00;;;;;;5002641;28;1383;-68
2023/11/04 05:35:52;;;;;;;;;;;20.80;70.00;;;;;;5004901;28;1240;-68
2023/11/04 05:38:18;;;;;;;;;;;20.80;70.00;;;;;;5002539;28;1453;-68
2023/11/04 05:40:43;;;;;;;;;;;20.80;70.00;;;;;;4981301;28;1982;-68
2023/11/04 05:43:09;;;;;;;;;;;20.80;70.10;;;;;;5008754;28;1201;-68
2023/11/04 05:45:34;;;;;;;;;;;20.80;70.10;;;;;;4999606;28;1948;-68
2023/11/04 05:48:00;;;;;;;;;;;20.80;70.10;;;;;;5000639;28;1627;-68
2023/11/04 05:50:25;;;;;;;;;;;20.80;70.00;;;;;;5001788;28;1748;-68
2023/11/04 05:52:51;;;;;;;;;;;20.80;70.10;;;;;;5007124;28;1253;-68
2023/11/04 05:55:16;;;;;;;;;;;20.80;70.00;;;;;;5000822;28;1278;-68
2023/11/04 05:57:42;;;;;;;;;;;20.80;70.10;;;;;;5003124;28;1334;-68
2023/11/04 06:00:11;;;;;;;;;;;20.80;70.10;;;;;;4999617;28;1371;-68
2023/11/04 06:02:40;;;;;;;;;;;20.80;70.10;;;;;;5007770;28;1906;-67
2023/11/04 06:05:09;;;;;;;;;;;20.80;70.10;;;;;;5002392;28;1443;-67
2023/11/04 06:07:35;;;;;;;;;;;20.80;70.10;;;;;;5001650;28;1334;-69
2023/11/04 06:10:00;;;;;;;;;;;20.80;70.10;;;;;;5000435;28;1242;-68
2023/11/04 06:12:26;;;;;;;;;;;20.80;70.10;;;;;;5000778;28;1471;-67
2023/11/04 06:14:51;;;;;;;;;;;20.80;70.10;;;;;;5005561;28;1250;-69
2023/11/04 06:17:17;;;;;;;;;;;20.80;70.10;;;;;;5001173;28;1419;-67
2023/11/04 06:19:42;;;;;;;;;;;20.80;70.10;;;;;;5005445;28;1073;-67
2023/11/04 06:22:08;;;;;;;;;;;20.80;70.10;;;;;;5007374;28;1982;-68
2023/11/04 06:24:36;;;;;;;;;;;20.80;70.50;;;;;;5006519;28;1225;-67
2023/11/04 06:27:02;;;;;;;;;;;20.80;70.10;;;;;;5005879;28;1116;-68
2023/11/04 06:29:27;;;;;;;;;;;20.70;70.10;;;;;;5003425;28;1213;-69
2023/11/04 06:31:53;;;;;;;;;;;20.70;70.10;;;;;;5008942;28;1669;-70
2023/11/04 06:34:18;;;;;;;;;;;20.80;70.10;;;;;;5002441;28;992;-70
2023/11/04 06:36:44;;;;;;;;;;;20.80;70.10;;;;;;5004487;28;902;-69
2023/11/04 06:39:09;;;;;;;;;;;20.80;70.10;;;;;;5005684;28;1351;-69
2023/11/04 06:41:35;;;;;;;;;;;20.70;70.10;;;;;;5001094;28;1931;-68
2023/11/04 06:44:00;;;;;;;;;;;20.70;70.10;;;;;;5005941;28;1624;-68
2023/11/04 06:46:26;;;;;;;;;;;20.80;70.20;;;;;;5004191;28;1331;-68
2023/11/04 06:48:54;;;;;;;;;;;20.70;70.10;;;;;;4999511;28;1452;-67
2023/11/04 06:51:20;;;;;;;;;;;20.70;70.10;;;;;;5002192;28;1363;-68
2023/11/04 06:53:45;;;;;;;;;;;20.70;70.10;;;;;;5003405;28;1166;-65
2023/11/04 06:56:11;;;;;;;;;;;20.70;70.10;;;;;;5001509;28;1114;-66
2023/11/04 06:58:36;;;;;;;;;;;20.70;70.10;;;;;;5002693;28;1424;-67
2023/11/04 07:01:02;;;;;;;;;;;20.70;70.10;;;;;;5000784;28;1910;-72
2023/11/04 07:03:30;;;;;;;;;;;20.70;70.10;;;;;;5000998;28;1277;-71
2023/11/04 07:05:56;;;;;;;;;;;20.70;68.90;;;;;;5002685;28;1274;-70
2023/11/04 07:08:21;;;;;;;;;;;20.70;63.80;;;;;;4999764;28;1587;-71
2023/11/04 07:10:47;;;;;;;;;;;20.70;58.10;;;;;;5001112;28;1729;-71
2023/11/04 07:13:14;;;;;;;;;;;20.70;57.50;;;;;;5003935;28;1433;-71
2023/11/04 07:15:46;;;;;;;;;;;20.70;56.80;;;;;;4998367;28;1480;-71
2023/11/04 07:18:12;;;;;;;;;;;20.70;54.50;;;;;;5000615;28;1648;-71
2023/11/04 07:20:38;;;;;;;;;;;20.70;54.00;;;;;;5012391;28;1914;-68
2023/11/04 07:23:03;;;;;;;;;;;20.60;54.80;;;;;;5002397;28;1254;-68
2023/11/04 07:25:30;;;;;;;;;;;20.70;56.00;;;;;;5001846;28;1494;-68
2023/11/04 07:27:56;;;;;;;;;;;20.60;55.80;;;;;;5000573;28;1368;-68
2023/11/04 07:30:21;;;;;;;;;;;20.60;51.50;;;;;;4999967;28;1676;-67
2023/11/04 07:32:47;;;;;;;;;;;20.60;54.10;;;;;;5003365;28;1363;-68
2023/11/04 07:35:12;;;;;;;;;;;20.60;53.80;;;;;;5002138;28;1232;-68
2023/11/04 07:37:38;;;;;;;;;;;20.60;54.50;;;;;;4998720;28;1476;-69
2023/11/04 07:40:07;;;;;;;;;;;20.60;52.30;;;;;;5000350;28;1259;-68
2023/11/04 07:42:33;;;;;;;;;;;20.60;53.00;;;;;;5000982;28;1979;-68
2023/11/04 07:44:59;;;;;;;;;;;20.60;53.80;;;;;;5000032;28;1287;-68
2023/11/04 07:47:24;;;;;;;;;;;20.60;54.10;;;;;;5003106;28;1334;-68
2023/11/04 07:49:50;;;;;;;;;;;20.50;53.90;;;;;;5002460;28;1319;-69
2023/11/04 07:52:16;;;;;;;;;;;20.60;54.40;;;;;;5003657;28;1354;-69
2023/11/04 07:54:41;;;;;;;;;;;20.50;50.90;;;;;;5001176;28;1238;-68
2023/11/04 07:57:07;;;;;;;;;;;20.50;52.10;;;;;;5003704;28;1402;-68
2023/11/04 07:59:33;;;;;;;;;;;20.50;52.90;;;;;;4999794;28;1371;-67
2023/11/04 08:01:58;;;;;;;;;;;20.50;53.10;;;;;;5000807;28;1970;-68
2023/11/04 08:04:26;;;;;;;;;;;20.50;53.40;;;;;;5002114;28;1560;-69
2023/11/04 08:06:51;;;;;;;;;;;20.50;53.70;;;;;;5002640;28;1893;-68
2023/11/04 08:09:18;;;;;;;;;;;20.60;54.60;;;;;;5000897;28;2295;-68
2023/11/04 08:11:43;;;;;;;;;;;20.60;55.70;;;;;;4999844;28;1590;-68
2023/11/04 08:14:09;;;;;;;;;;;20.70;56.10;;;;;;4999385;28;1371;-68
2023/11/04 08:16:34;;;;;;;;;;;20.70;56.10;;;;;;5005367;28;1704;-68
2023/11/04 08:19:00;;;;;;;;;;;20.80;56.20;;;;;;5000471;28;1431;-68
2023/11/04 08:21:29;;;;;;;;;;;20.80;56.30;;;;;;5003135;28;1980;-68
2023/11/04 08:23:58;;;;;;;;;;;20.90;56.50;;;;;;4999655;28;1657;-68
2023/11/04 08:26:24;;;;;;;;;;;21.00;56.60;;;;;;4997308;28;1475;-68
2023/11/04 08:28:51;;;;;;;;;;;21.10;56.70;;;;;;4998913;28;1334;-68
2023/11/04 08:31:19;;;;;;;;;;;21.20;56.80;;;;;;4998780;28;1383;-69
2023/11/04 08:33:48;;;;;;;;;;;21.30;56.80;;;;;;5000741;28;1461;-69
2023/11/04 08:36:14;;;;;;;;;;;21.30;56.80;;;;;;5005535;28;1265;-68
2023/11/04 08:38:40;;;;;;;;;;;21.40;56.90;;;;;;5005773;28;1538;-68
2023/11/04 08:41:05;;;;;;;;;;;21.50;57.00;;;;;;5004948;28;1967;-68
2023/11/04 08:43:31;;;;;;;;;;;21.50;57.00;;;;;;5005379;28;1208;-68
2023/11/04 08:45:56;;;;;;;;;;;21.60;57.10;;;;;;5003577;28;1267;-68
2023/11/04 08:48:21;;;;;;;;;;;21.60;57.10;;;;;;5004164;28;1283;-69
2023/11/04 08:50:47;;;;;;;;;;;21.60;57.20;;;;;;5002845;28;1280;-69
2023/11/04 08:53:12;;;;;;;;;;;21.70;57.30;;;;;;5005051;28;1618;-69
2023/11/04 08:55:38;;;;;;;;;;;21.70;57.30;;;;;;5004486;28;1374;-68
2023/11/04 08:58:04;;;;;;;;;;;21.70;57.50;;;;;;5007607;28;1452;-69
2023/11/04 09:00:29;;;;;;;;;;;21.70;57.60;;;;;;5003179;28;1414;-69
2023/11/04 09:02:55;;;;;;;;;;;21.80;57.60;;;;;;5000656;28;1907;-68
2023/11/04 09:05:21;;;;;;;;;;;21.80;57.70;;;;;;5001004;28;1256;-68
2023/11/04 09:07:47;;;;;;;;;;;21.80;57.80;;;;;;5009254;28;960;-68
2023/11/04 09:10:12;;;;;;;;;;;21.80;57.70;;;;;;5005792;28;1286;-69
2023/11/04 09:12:38;;;;;;;;;;;21.80;57.90;;;;;;5010649;28;982;-69
2023/11/04 09:15:03;;;;;;;;;;;21.80;57.90;;;;;;5003191;28;1222;-68
2023/11/04 09:17:32;;;;;;;;;;;21.80;58.00;;;;;;5003322;28;1266;-69
2023/11/04 09:19:57;;;;;;;;;;;21.80;58.00;;;;;;5003974;28;1120;-69
2023/11/04 09:22:23;;;;;;;;;;;21.80;58.20;;;;;;5001957;28;1934;-68
2023/11/04 09:24:48;;;;;;;;;;;21.80;58.20;;;;;;5005095;28;1447;-68
2023/11/04 09:27:14;;;;;;;;;;;21.80;58.20;;;;;;5002257;28;1394;-68
2023/11/04 09:29:39;;;;;;;;;;;21.80;58.30;;;;;;5003307;28;1344;-69
2023/11/04 09:32:05;;;;;;;;;;;21.80;58.40;;;;;;5006332;28;1423;-69
2023/11/04 09:34:31;;;;;;;;;;;21.80;58.50;;;;;;5004344;28;1608;-68
2023/11/04 09:36:56;;;;;;;;;;;21.80;58.50;;;;;;5004007;28;1394;-68
2023/11/04 09:39:22;;;;;;;;;;;21.80;58.60;;;;;;5003239;28;1469;-68
2023/11/04 09:41:51;;;;;;;;;;;21.80;58.70;;;;;;5005991;28;1975;-69
2023/11/04 09:44:16;;;;;;;;;;;21.80;58.70;;;;;;5006089;28;1356;-69
2023/11/04 09:46:42;;;;;;;;;;;21.80;58.80;;;;;;5004925;28;1255;-68
2023/11/04 09:49:07;;;;;;;;;;;21.80;58.90;;;;;;5008233;28;1557;-69
2023/11/04 09:51:33;;;;;;;;;;;21.80;59.00;;;;;;4999755;28;1770;-69
2023/11/04 09:53:58;;;;;;;;;;;21.80;59.10;;;;;;5007318;28;1430;-68
2023/11/04 09:56:24;;;;;;;;;;;21.70;59.20;;;;;;5005424;28;1445;-68
2023/11/04 09:58:50;;;;;;;;;;;21.70;59.20;;;;;;5005590;28;1356;-68
2023/11/04 10:01:18;;;;;;;;;;;21.70;59.40;;;;;;5004580;28;1919;-69
2023/11/04 10:03:44;;;;;;;;;;;21.70;59.50;;;;;;5005555;28;1266;-69
2023/11/04 10:06:10;;;;;;;;;;;21.70;59.60;;;;;;5002228;28;1478;-69
2023/11/04 10:08:35;;;;;;;;;;;21.70;59.70;;;;;;5003964;28;1345;-69
2023/11/04 10:11:02;;;;;;;;;;;21.70;59.70;;;;;;5000523;28;1533;-68
2023/11/04 10:13:27;;;;;;;;;;;21.70;59.80;;;;;;5002717;28;1525;-68
2023/11/04 10:15:53;;;;;;;;;;;21.60;59.90;;;;;;5003465;28;966;-68
2023/11/04 10:18:18;;;;;;;;;;;21.60;60.00;;;;;;4999850;28;1333;-69
2023/11/04 10:20:44;;;;;;;;;;;21.60;60.10;;;;;;4982709;28;1974;-68
2023/11/04 10:23:09;;;;;;;;;;;21.60;60.20;;;;;;5006457;28;1472;-69
2023/11/04 10:25:34;;;;;;;;;;;21.60;60.30;;;;;;5001162;28;1240;-68
2023/11/04 10:28:00;;;;;;;;;;;21.60;60.30;;;;;;5001848;28;1391;-68
2023/11/04 10:30:25;;;;;;;;;;;21.60;60.50;;;;;;5002481;28;1442;-69
2023/11/04 10:32:52;;;;;;;;;;;21.60;61.30;;;;;;5001809;28;1568;-68
2023/11/04 10:35:22;;;;;;;;;;;21.60;60.70;;;;;;5001515;28;1521;-68
2023/11/04 10:37:48;;;;;;;;;;;21.50;60.70;;;;;;5007231;28;1524;-68
2023/11/04 10:40:14;;;;;;;;;;;21.50;60.80;;;;;;5000636;28;1493;-68
2023/11/04 10:42:42;;;;;;;;;;;21.50;60.90;;;;;;5017603;28;1902;-68
2023/11/04 10:45:11;;;;;;;;;;;21.50;60.90;;;;;;5007596;28;1412;-68
2023/11/04 10:47:41;;;;;;;;;;;21.50;61.00;;;;;;4998816;28;2060;-68
2023/11/04 10:50:16;;;;;;;;;;;21.50;61.10;;;;;;5004716;28;1246;-68
2023/11/04 10:52:48;;;;;;;;;;;21.50;61.20;;;;;;5002571;28;1456;-68
2023/11/04 10:55:17;;;;;;;;;;;21.50;61.30;;;;;;5006610;28;1480;-68
2023/11/04 10:57:44;;;;;;;;;;;21.40;61.30;;;;;;5005261;28;1181;-69
2023/11/04 11:00:13;;;;;;;;;;;21.40;61.40;;;;;;5007352;28;1395;-68
2023/11/04 11:02:45;;;;;;;;;;;21.40;61.50;;;;;;5003050;28;2287;-69
2023/11/04 11:05:14;;;;;;;;;;;21.40;61.50;;;;;;4999271;28;1578;-68
2023/11/04 11:07:40;;;;;;;;;;;21.40;61.60;;;;;;4991516;28;1601;-68
2023/11/04 11:10:06;;;;;;;;;;;21.40;61.70;;;;;;5001782;28;1339;-69
2023/11/04 11:12:33;;;;;;;;;;;21.40;61.70;;;;;;5000787;28;1500;-68
2023/11/04 11:14:58;;;;;;;;;;;21.40;61.80;;;;;;4999610;28;1409;-69
2023/11/04 11:17:32;;;;;;;;;;;21.40;61.90;;;;;;5002320;28;1520;-69
2023/11/04 11:19:58;;;;;;;;;;;21.30;61.80;;;;;;5000078;28;1177;-69
2023/11/04 11:22:24;;;;;;;;;;;21.30;61.90;;;;;;5004102;28;1971;-68
2023/11/04 11:24:55;;;;;;;;;;;21.30;62.00;;;;;;4999576;28;1284;-68
2023/11/04 11:27:20;;;;;;;;;;;21.30;62.10;;;;;;5000721;28;1301;-68
2023/11/04 11:29:46;;;;;;;;;;;21.30;62.10;;;;;;5005020;28;1357;-68
2023/11/04 11:32:11;;;;;;;;;;;21.30;62.20;;;;;;5001390;28;1454;-68
2023/11/04 11:34:52;;;;;;;;;;;21.30;62.20;;;;;;4999638;28;1695;-68
2023/11/04 11:37:19;;;;;;;;;;;21.30;62.30;;;;;;5001104;28;1389;-69
2023/11/04 11:39:44;;;;;;;;;;;21.30;62.30;;;;;;5002411;28;1447;-68
2023/11/04 11:42:11;;;;;;;;;;;21.30;62.40;;;;;;5000630;28;1898;-69
2023/11/04 11:44:37;;;;;;;;;;;21.30;62.50;;;;;;5010032;28;1440;-68
2023/11/04 11:47:03;;;;;;;;;;;21.30;62.50;;;;;;5001538;28;1353;-68
2023/11/04 11:49:30;;;;;;;;;;;21.30;62.50;;;;;;5003022;28;1357;-69
2023/11/04 11:51:56;;;;;;;;;;;21.30;62.60;;;;;;4998149;28;1335;-68
2023/11/04 11:54:22;;;;;;;;;;;21.30;63.40;;;;;;4997859;28;1292;-68
2023/11/04 11:56:47;;;;;;;;;;;21.30;62.70;;;;;;4998122;28;1342;-69
2023/11/04 11:59:13;;;;;;;;;;;21.30;62.70;;;;;;5002031;28;1342;-68
2023/11/04 12:01:41;;;;;;;;;;;21.30;62.70;;;;;;5002591;28;1981;-68
2023/11/04 12:04:07;;;;;;;;;;;21.30;62.80;;;;;;4999867;28;916;-68
2023/11/04 12:06:33;;;;;;;;;;;21.30;62.70;;;;;;4999882;28;1320;-68
2023/11/04 12:08:58;;;;;;;;;;;21.40;62.80;;;;;;4998351;28;967;-69
2023/11/04 12:11:24;;;;;;;;;;;21.40;62.80;;;;;;5002242;28;1312;-68
2023/11/04 12:13:50;;;;;;;;;;;21.40;62.80;;;;;;5014708;28;1161;-68
2023/11/04 12:16:15;;;;;;;;;;;21.40;62.70;;;;;;4999298;28;1277;-69
2023/11/04 12:18:41;;;;;;;;;;;21.50;62.70;;;;;;5001797;28;1480;-68
2023/11/04 12:21:10;;;;;;;;;;;21.50;62.70;;;;;;5001789;28;2021;-68
2023/11/04 12:23:36;;;;;;;;;;;21.50;62.60;;;;;;4999376;28;1390;-68
2023/11/04 12:26:01;;;;;;;;;;;21.50;62.50;;;;;;5000207;28;1316;-68
2023/11/04 12:28:27;;;;;;;;;;;21.60;62.50;;;;;;4998653;28;1361;-69
2023/11/04 12:31:01;;;;;;;;;;;21.60;62.40;;;;;;5000046;28;1639;-68
2023/11/04 12:33:27;;;;;;;;;;;21.60;62.30;;;;;;4999497;28;1334;-67
2023/11/04 12:36:14;;;;;;;;;;;21.60;62.20;;;;;;4993566;28;1360;-68
2023/11/04 12:38:39;;;;;;;;;;;21.70;62.20;;;;;;5004189;28;1349;-68
2023/11/04 12:41:05;;;;;;;;;;;21.70;62.20;;;;;;5001038;28;1993;-66
2023/11/04 12:43:31;;;;;;;;;;;21.70;62.10;;;;;;4999684;28;1319;-66
2023/11/04 12:45:56;;;;;;;;;;;21.70;62.10;;;;;;5001156;28;1420;-66
2023/11/04 12:48:22;;;;;;;;;;;21.70;62.10;;;;;;5000577;28;1436;-66
2023/11/04 12:50:48;;;;;;;;;;;21.70;62.10;;;;;;5000968;28;1453;-66
2023/11/04 12:53:13;;;;;;;;;;;21.70;62.10;;;;;;5002534;28;1466;-66
2023/11/04 12:55:39;;;;;;;;;;;21.70;62.10;;;;;;5001166;28;1759;-66
2023/11/04 12:58:06;;;;;;;;;;;21.70;62.10;;;;;;4999810;28;1229;-66
2023/11/04 13:00:31;;;;;;;;;;;21.70;62.20;;;;;;5004623;28;1359;-66
2023/11/04 13:02:57;;;;;;;;;;;21.70;62.20;;;;;;5004525;28;1906;-66
2023/11/04 13:05:23;;;;;;;;;;;21.70;62.20;;;;;;4998630;28;1564;-66
2023/11/04 13:07:49;;;;;;;;;;;21.70;62.30;;;;;;5002320;28;1312;-66
2023/11/04 13:10:14;;;;;;;;;;;21.70;62.30;;;;;;4999545;28;1340;-66
2023/11/04 13:12:40;;;;;;;;;;;21.70;62.40;;;;;;4997605;28;1827;-66
2023/11/04 13:15:06;;;;;;;;;;;21.70;62.40;;;;;;5002316;28;1709;-66
2023/11/04 13:17:31;;;;;;;;;;;21.60;62.40;;;;;;5000188;28;1450;-66
2023/11/04 13:19:57;;;;;;;;;;;21.60;62.50;;;;;;5003277;28;1145;-66
2023/11/04 13:22:22;;;;;;;;;;;21.60;62.60;;;;;;5005617;28;1961;-66
2023/11/04 13:24:48;;;;;;;;;;;21.60;62.60;;;;;;5003196;28;1353;-66
2023/11/04 13:27:13;;;;;;;;;;;21.60;62.70;;;;;;5004612;28;1506;-66
2023/11/04 13:29:39;;;;;;;;;;;21.60;62.80;;;;;;5002738;28;1509;-66
2023/11/04 13:32:04;;;;;;;;;;;21.60;62.80;;;;;;5004229;28;1289;-66
2023/11/04 13:34:30;;;;;;;;;;;21.50;62.80;;;;;;5000792;28;971;-66
2023/11/04 13:36:55;;;;;;;;;;;21.50;62.90;;;;;;5001446;28;1494;-66
2023/11/04 13:39:21;;;;;;;;;;;21.50;62.90;;;;;;5003422;28;1269;-66
2023/11/04 13:41:46;;;;;;;;;;;21.50;63.00;;;;;;5003826;28;2123;-65
2023/11/04 13:44:12;;;;;;;;;;;21.50;63.00;;;;;;5004873;28;1652;-65
2023/11/04 13:46:38;;;;;;;;;;;21.50;63.00;;;;;;5007855;28;1961;-66
2023/11/04 13:49:04;;;;;;;;;;;21.50;63.00;;;;;;5003113;28;1571;-65
2023/11/04 13:51:29;;;;;;;;;;;21.50;63.00;;;;;;5001023;28;1467;-66
2023/11/04 13:53:55;;;;;;;;;;;21.50;63.00;;;;;;5005168;28;1529;-66
2023/11/04 13:56:21;;;;;;;;;;;21.50;63.00;;;;;;5002695;28;1497;-66
2023/11/04 13:58:48;;;;;;;;;;;21.50;63.00;;;;;;5002240;28;1598;-66
2023/11/04 14:01:13;;;;;;;;;;;21.50;63.10;;;;;;5000166;28;1910;-66
2023/11/04 14:03:39;;;;;;;;;;;21.50;63.00;;;;;;5000533;28;1356;-66
2023/11/04 14:06:04;;;;;;;;;;;21.60;63.10;;;;;;5004440;28;1404;-66
2023/11/04 14:08:31;;;;;;;;;;;21.50;63.00;;;;;;5003426;28;1352;-65
2023/11/04 14:10:56;;;;;;;;;;;21.60;63.00;;;;;;5006953;28;1359;-65
2023/11/04 14:13:23;;;;;;;;;;;21.60;63.10;;;;;;5003733;28;1364;-65
2023/11/04 14:15:51;;;;;;;;;;;21.60;63.00;;;;;;5003875;28;1652;-66
2023/11/04 14:18:17;;;;;;;;;;;21.60;63.00;;;;;;5003769;28;1261;-65
2023/11/04 14:20:43;;;;;;;;;;;21.60;63.00;;;;;;5002244;28;1550;-65
2023/11/04 14:23:08;;;;;;;;;;;21.60;63.10;;;;;;5005056;28;1477;-66